Weather at Braunig Emergency Helicopter Landing Facility

Public forecast

Using degrees Fahrenheit for public forecast. Weather courtesy of forecast.io.

Closest aviation weather report (METAR) to Braunig Emergency Helicopter Landing Facility

Closest report is Stinson Municipal Airport, 6.7 nm (12.4 km) NW.

2024/07/16 18:53 (retrieved 1 hour ago)

KSSF 161853Z 21009G15KT 10SM FEW040 34/21 A2994 RMK AO2 SLP127 T03440211

Closest aviation forecast (TAF) to Braunig Emergency Helicopter Landing Facility

Closest forecast is Stinson Municipal Airport, 6.7 nm (12.4 km) NW.

2024/07/16 18:48 (retrieved 1 hour ago)

TAF KSSF 161745Z 1618/1718 17010KT P6SM SCT035 FM162300 14012KT P6SM FEW250